sensor_id;sensor_type;location;lat;lon;timestamp;P1;durP1;ratioP1;P2;durP2;ratioP2
19547;SDS011;9919;58.014;11.826;2023-06-05T00:00:08;0.80;;;0.80;;
19547;SDS011;9919;58.014;11.826;2023-06-05T00:02:09;0.70;;;0.70;;
19547;SDS011;9919;58.014;11.826;2023-06-05T00:04:11;0.60;;;0.60;;
19547;SDS011;9919;58.014;11.826;2023-06-05T00:06:12;0.70;;;0.70;;
19547;SDS011;9919;58.014;11.826;2023-06-05T00:08:14;1.13;;;0.82;;
19547;SDS011;9919;58.014;11.826;2023-06-05T00:10:16;0.57;;;0.50;;
19547;SDS011;9919;58.014;11.826;2023-06-05T00:12:18;0.60;;;0.60;;
19547;SDS011;9919;58.014;11.826;2023-06-05T00:14:19;0.88;;;0.85;;
19547;SDS011;9919;58.014;11.826;2023-06-05T00:16:20;0.90;;;0.90;;
19547;SDS011;9919;58.014;11.826;2023-06-05T00:18:22;0.40;;;0.40;;
19547;SDS011;9919;58.014;11.826;2023-06-05T00:20:24;0.50;;;0.50;;
19547;SDS011;9919;58.014;11.826;2023-06-05T00:22:27;1.10;;;1.00;;
19547;SDS011;9919;58.014;11.826;2023-06-05T00:24:29;0.60;;;0.60;;
19547;SDS011;9919;58.014;11.826;2023-06-05T00:26:30;0.60;;;0.60;;
19547;SDS011;9919;58.014;11.826;2023-06-05T00:28:31;0.50;;;0.50;;
19547;SDS011;9919;58.014;11.826;2023-06-05T00:30:33;0.40;;;0.40;;
19547;SDS011;9919;58.014;11.826;2023-06-05T00:32:37;0.80;;;0.80;;
19547;SDS011;9919;58.014;11.826;2023-06-05T00:34:39;0.70;;;0.70;;
19547;SDS011;9919;58.014;11.826;2023-06-05T00:36:41;0.63;;;0.63;;
19547;SDS011;9919;58.014;11.826;2023-06-05T00:38:43;0.47;;;0.47;;
19547;SDS011;9919;58.014;11.826;2023-06-05T00:40:45;0.60;;;0.60;;
19547;SDS011;9919;58.014;11.826;2023-06-05T00:42:46;0.65;;;0.65;;
19547;SDS011;9919;58.014;11.826;2023-06-05T00:44:48;0.80;;;0.80;;
19547;SDS011;9919;58.014;11.826;2023-06-05T00:46:50;0.63;;;0.63;;
19547;SDS011;9919;58.014;11.826;2023-06-05T00:48:53;0.60;;;0.60;;
19547;SDS011;9919;58.014;11.826;2023-06-05T00:50:55;0.75;;;0.73;;
19547;SDS011;9919;58.014;11.826;2023-06-05T00:52:58;0.63;;;0.50;;
19547;SDS011;9919;58.014;11.826;2023-06-05T00:55:01;0.60;;;0.57;;
19547;SDS011;9919;58.014;11.826;2023-06-05T00:57:02;0.60;;;0.60;;
19547;SDS011;9919;58.014;11.826;2023-06-05T00:59:04;1.00;;;0.93;;
19547;SDS011;9919;58.014;11.826;2023-06-05T01:01:06;0.70;;;0.70;;
19547;SDS011;9919;58.014;11.826;2023-06-05T01:03:11;0.77;;;0.77;;
19547;SDS011;9919;58.014;11.826;2023-06-05T01:05:13;0.60;;;0.60;;
19547;SDS011;9919;58.014;11.826;2023-06-05T01:07:15;0.50;;;0.50;;
19547;SDS011;9919;58.014;11.826;2023-06-05T01:09:17;0.57;;;0.57;;
19547;SDS011;9919;58.014;11.826;2023-06-05T01:11:24;0.80;;;0.80;;
19547;SDS011;9919;58.014;11.826;2023-06-05T01:13:28;1.40;;;0.88;;
19547;SDS011;9919;58.014;11.826;2023-06-05T01:15:31;0.50;;;0.50;;
19547;SDS011;9919;58.014;11.826;2023-06-05T01:17:33;0.55;;;0.55;;
19547;SDS011;9919;58.014;11.826;2023-06-05T01:19:35;1.67;;;0.82;;
19547;SDS011;9919;58.014;11.826;2023-06-05T01:21:39;0.47;;;0.47;;
19547;SDS011;9919;58.014;11.826;2023-06-05T01:23:41;0.98;;;0.80;;
19547;SDS011;9919;58.014;11.826;2023-06-05T01:25:44;0.95;;;0.95;;
19547;SDS011;9919;58.014;11.826;2023-06-05T01:27:52;0.70;;;0.70;;
19547;SDS011;9919;58.014;11.826;2023-06-05T01:32:06;0.60;;;0.60;;
19547;SDS011;9919;58.014;11.826;2023-06-05T01:34:12;0.82;;;0.82;;
19547;SDS011;9919;58.014;11.826;2023-06-05T01:36:15;0.70;;;0.70;;
19547;SDS011;9919;58.014;11.826;2023-06-05T01:38:18;0.55;;;0.55;;
19547;SDS011;9919;58.014;11.826;2023-06-05T01:40:21;0.70;;;0.70;;
19547;SDS011;9919;58.014;11.826;2023-06-05T01:42:23;0.70;;;0.70;;
19547;SDS011;9919;58.014;11.826;2023-06-05T01:44:26;0.60;;;0.60;;
19547;SDS011;9919;58.014;11.826;2023-06-05T01:46:27;0.80;;;0.80;;
19547;SDS011;9919;58.014;11.826;2023-06-05T01:48:29;0.65;;;0.65;;
19547;SDS011;9919;58.014;11.826;2023-06-05T01:50:35;0.35;;;0.35;;
19547;SDS011;9919;58.014;11.826;2023-06-05T01:52:37;0.80;;;0.80;;
19547;SDS011;9919;58.014;11.826;2023-06-05T01:54:39;0.60;;;0.60;;
19547;SDS011;9919;58.014;11.826;2023-06-05T01:56:42;0.50;;;0.50;;
19547;SDS011;9919;58.014;11.826;2023-06-05T01:58:43;0.38;;;0.38;;
19547;SDS011;9919;58.014;11.826;2023-06-05T02:00:46;0.40;;;0.40;;
19547;SDS011;9919;58.014;11.826;2023-06-05T02:02:48;0.35;;;0.35;;
19547;SDS011;9919;58.014;11.826;2023-06-05T02:04:50;0.52;;;0.52;;
19547;SDS011;9919;58.014;11.826;2023-06-05T02:06:54;0.50;;;0.50;;
19547;SDS011;9919;58.014;11.826;2023-06-05T02:08:55;0.85;;;0.77;;
19547;SDS011;9919;58.014;11.826;2023-06-05T02:10:56;0.80;;;0.80;;
19547;SDS011;9919;58.014;11.826;2023-06-05T02:13:02;0.40;;;0.40;;
19547;SDS011;9919;58.014;11.826;2023-06-05T02:15:04;0.88;;;0.88;;
19547;SDS011;9919;58.014;11.826;2023-06-05T02:17:06;0.70;;;0.57;;
19547;SDS011;9919;58.014;11.826;2023-06-05T02:19:07;0.80;;;0.80;;
19547;SDS011;9919;58.014;11.826;2023-06-05T02:21:08;0.73;;;0.73;;
19547;SDS011;9919;58.014;11.826;2023-06-05T02:23:10;1.05;;;0.75;;
19547;SDS011;9919;58.014;11.826;2023-06-05T02:25:12;0.60;;;0.60;;
19547;SDS011;9919;58.014;11.826;2023-06-05T02:27:14;3.67;;;0.50;;
19547;SDS011;9919;58.014;11.826;2023-06-05T02:29:16;1.20;;;0.60;;
19547;SDS011;9919;58.014;11.826;2023-06-05T02:31:17;0.70;;;0.70;;
19547;SDS011;9919;58.014;11.826;2023-06-05T02:33:20;2.17;;;0.70;;
19547;SDS011;9919;58.014;11.826;2023-06-05T02:35:22;0.50;;;0.50;;
19547;SDS011;9919;58.014;11.826;2023-06-05T02:37:24;0.60;;;0.60;;
19547;SDS011;9919;58.014;11.826;2023-06-05T02:39:27;0.65;;;0.50;;
19547;SDS011;9919;58.014;11.826;2023-06-05T02:41:30;0.65;;;0.65;;
19547;SDS011;9919;58.014;11.826;2023-06-05T02:43:32;0.45;;;0.45;;
19547;SDS011;9919;58.014;11.826;2023-06-05T02:45:33;0.65;;;0.65;;
19547;SDS011;9919;58.014;11.826;2023-06-05T02:47:35;0.57;;;0.52;;
19547;SDS011;9919;58.014;11.826;2023-06-05T02:49:37;0.50;;;0.40;;
19547;SDS011;9919;58.014;11.826;2023-06-05T02:51:38;0.55;;;0.55;;
19547;SDS011;9919;58.014;11.826;2023-06-05T02:53:40;0.65;;;0.65;;
19547;SDS011;9919;58.014;11.826;2023-06-05T02:55:41;0.70;;;0.70;;
19547;SDS011;9919;58.014;11.826;2023-06-05T02:57:43;0.68;;;0.68;;
19547;SDS011;9919;58.014;11.826;2023-06-05T02:59:48;0.50;;;0.50;;
19547;SDS011;9919;58.014;11.826;2023-06-05T03:01:50;0.90;;;0.63;;
19547;SDS011;9919;58.014;11.826;2023-06-05T03:03:52;0.60;;;0.60;;
19547;SDS011;9919;58.014;11.826;2023-06-05T03:06:00;0.38;;;0.38;;
19547;SDS011;9919;58.014;11.826;2023-06-05T03:08:06;0.70;;;0.70;;
19547;SDS011;9919;58.014;11.826;2023-06-05T03:10:09;0.60;;;0.60;;
19547;SDS011;9919;58.014;11.826;2023-06-05T03:12:11;0.50;;;0.50;;
19547;SDS011;9919;58.014;11.826;2023-06-05T03:14:13;2.92;;;0.75;;
19547;SDS011;9919;58.014;11.826;2023-06-05T03:16:16;0.60;;;0.60;;
19547;SDS011;9919;58.014;11.826;2023-06-05T03:18:17;0.80;;;0.80;;
19547;SDS011;9919;58.014;11.826;2023-06-05T03:20:20;0.70;;;0.70;;
19547;SDS011;9919;58.014;11.826;2023-06-05T03:22:22;0.60;;;0.60;;
19547;SDS011;9919;58.014;11.826;2023-06-05T03:24:24;0.65;;;0.65;;
19547;SDS011;9919;58.014;11.826;2023-06-05T03:26:27;0.75;;;0.75;;
19547;SDS011;9919;58.014;11.826;2023-06-05T03:28:29;0.63;;;0.63;;
19547;SDS011;9919;58.014;11.826;2023-06-05T03:30:33;0.60;;;0.60;;
19547;SDS011;9919;58.014;11.826;2023-06-05T03:32:34;0.70;;;0.70;;
19547;SDS011;9919;58.014;11.826;2023-06-05T03:34:37;0.80;;;0.80;;
19547;SDS011;9919;58.014;11.826;2023-06-05T03:36:38;0.80;;;0.80;;
19547;SDS011;9919;58.014;11.826;2023-06-05T03:38:39;0.85;;;0.70;;
19547;SDS011;9919;58.014;11.826;2023-06-05T03:40:41;0.68;;;0.68;;
19547;SDS011;9919;58.014;11.826;2023-06-05T03:42:43;0.77;;;0.77;;
19547;SDS011;9919;58.014;11.826;2023-06-05T03:44:44;0.70;;;0.70;;
19547;SDS011;9919;58.014;11.826;2023-06-05T03:46:45;0.88;;;0.88;;
19547;SDS011;9919;58.014;11.826;2023-06-05T03:48:48;0.73;;;0.73;;
19547;SDS011;9919;58.014;11.826;2023-06-05T03:50:53;1.00;;;0.80;;
19547;SDS011;9919;58.014;11.826;2023-06-05T03:52:57;0.73;;;0.73;;
19547;SDS011;9919;58.014;11.826;2023-06-05T03:55:05;1.05;;;0.95;;
19547;SDS011;9919;58.014;11.826;2023-06-05T03:57:11;0.82;;;0.82;;
19547;SDS011;9919;58.014;11.826;2023-06-05T03:59:15;0.85;;;0.73;;
19547;SDS011;9919;58.014;11.826;2023-06-05T04:01:19;0.70;;;0.70;;
19547;SDS011;9919;58.014;11.826;2023-06-05T04:03:21;0.75;;;0.75;;
19547;SDS011;9919;58.014;11.826;2023-06-05T04:05:22;1.63;;;1.10;;
19547;SDS011;9919;58.014;11.826;2023-06-05T04:07:24;0.70;;;0.70;;
19547;SDS011;9919;58.014;11.826;2023-06-05T04:09:26;1.15;;;0.80;;
19547;SDS011;9919;58.014;11.826;2023-06-05T04:11:27;0.80;;;0.80;;
19547;SDS011;9919;58.014;11.826;2023-06-05T04:13:30;1.08;;;1.05;;
19547;SDS011;9919;58.014;11.826;2023-06-05T04:15:31;0.98;;;0.98;;
19547;SDS011;9919;58.014;11.826;2023-06-05T04:17:33;1.35;;;0.98;;
19547;SDS011;9919;58.014;11.826;2023-06-05T04:19:37;0.80;;;0.80;;
19547;SDS011;9919;58.014;11.826;2023-06-05T04:21:40;1.02;;;1.02;;
19547;SDS011;9919;58.014;11.826;2023-06-05T04:23:41;1.52;;;1.00;;
19547;SDS011;9919;58.014;11.826;2023-06-05T04:25:44;0.98;;;0.98;;
19547;SDS011;9919;58.014;11.826;2023-06-05T04:27:46;1.40;;;0.80;;
19547;SDS011;9919;58.014;11.826;2023-06-05T04:29:49;0.73;;;0.73;;
19547;SDS011;9919;58.014;11.826;2023-06-05T04:31:51;0.98;;;0.98;;
19547;SDS011;9919;58.014;11.826;2023-06-05T04:33:54;0.68;;;0.68;;
19547;SDS011;9919;58.014;11.826;2023-06-05T04:35:55;0.77;;;0.77;;
19547;SDS011;9919;58.014;11.826;2023-06-05T04:37:56;1.10;;;1.08;;
19547;SDS011;9919;58.014;11.826;2023-06-05T04:39:59;0.93;;;0.93;;
19547;SDS011;9919;58.014;11.826;2023-06-05T04:42:00;1.70;;;1.08;;
19547;SDS011;9919;58.014;11.826;2023-06-05T04:44:02;1.35;;;1.27;;
19547;SDS011;9919;58.014;11.826;2023-06-05T04:46:03;0.98;;;0.90;;
19547;SDS011;9919;58.014;11.826;2023-06-05T04:48:04;0.85;;;0.85;;
19547;SDS011;9919;58.014;11.826;2023-06-05T04:50:06;0.98;;;0.82;;
19547;SDS011;9919;58.014;11.826;2023-06-05T04:52:08;0.95;;;0.80;;
19547;SDS011;9919;58.014;11.826;2023-06-05T04:54:11;2.08;;;1.35;;
19547;SDS011;9919;58.014;11.826;2023-06-05T04:56:13;0.90;;;0.90;;
19547;SDS011;9919;58.014;11.826;2023-06-05T04:58:14;0.80;;;0.80;;
19547;SDS011;9919;58.014;11.826;2023-06-05T05:00:16;1.75;;;1.02;;
19547;SDS011;9919;58.014;11.826;2023-06-05T05:02:18;1.00;;;1.00;;
19547;SDS011;9919;58.014;11.826;2023-06-05T05:04:21;1.67;;;1.20;;
19547;SDS011;9919;58.014;11.826;2023-06-05T05:06:24;1.20;;;1.10;;
19547;SDS011;9919;58.014;11.826;2023-06-05T05:08:27;0.80;;;0.80;;
19547;SDS011;9919;58.014;11.826;2023-06-05T05:10:28;1.15;;;1.05;;
19547;SDS011;9919;58.014;11.826;2023-06-05T05:12:29;1.23;;;1.13;;
19547;SDS011;9919;58.014;11.826;2023-06-05T05:14:31;1.08;;;1.05;;
19547;SDS011;9919;58.014;11.826;2023-06-05T05:16:32;0.85;;;0.85;;
19547;SDS011;9919;58.014;11.826;2023-06-05T05:18:34;1.02;;;1.02;;
19547;SDS011;9919;58.014;11.826;2023-06-05T05:20:37;0.88;;;0.88;;
19547;SDS011;9919;58.014;11.826;2023-06-05T05:22:40;1.30;;;1.20;;
19547;SDS011;9919;58.014;11.826;2023-06-05T05:24:41;3.08;;;1.33;;
19547;SDS011;9919;58.014;11.826;2023-06-05T05:26:44;1.45;;;1.35;;
19547;SDS011;9919;58.014;11.826;2023-06-05T05:28:46;2.05;;;1.50;;
19547;SDS011;9919;58.014;11.826;2023-06-05T05:30:48;0.98;;;0.98;;
19547;SDS011;9919;58.014;11.826;2023-06-05T05:32:51;1.05;;;1.00;;
19547;SDS011;9919;58.014;11.826;2023-06-05T05:34:53;1.05;;;1.05;;
19547;SDS011;9919;58.014;11.826;2023-06-05T05:36:55;1.33;;;1.20;;
19547;SDS011;9919;58.014;11.826;2023-06-05T05:38:59;1.00;;;1.00;;
19547;SDS011;9919;58.014;11.826;2023-06-05T05:41:01;1.08;;;1.02;;
19547;SDS011;9919;58.014;11.826;2023-06-05T05:43:04;1.50;;;1.33;;
19547;SDS011;9919;58.014;11.826;2023-06-05T05:45:05;1.20;;;1.10;;
19547;SDS011;9919;58.014;11.826;2023-06-05T05:47:08;1.20;;;1.10;;
19547;SDS011;9919;58.014;11.826;2023-06-05T05:49:10;0.80;;;0.80;;
19547;SDS011;9919;58.014;11.826;2023-06-05T05:51:11;0.90;;;0.90;;
19547;SDS011;9919;58.014;11.826;2023-06-05T05:53:13;1.17;;;1.08;;
19547;SDS011;9919;58.014;11.826;2023-06-05T05:55:14;1.58;;;1.48;;
19547;SDS011;9919;58.014;11.826;2023-06-05T05:57:15;1.33;;;1.20;;
19547;SDS011;9919;58.014;11.826;2023-06-05T05:59:17;1.05;;;1.05;;
19547;SDS011;9919;58.014;11.826;2023-06-05T06:01:19;1.70;;;1.60;;
19547;SDS011;9919;58.014;11.826;2023-06-05T06:03:22;0.90;;;0.90;;
19547;SDS011;9919;58.014;11.826;2023-06-05T06:05:26;2.03;;;1.40;;
19547;SDS011;9919;58.014;11.826;2023-06-05T06:07:29;1.23;;;1.05;;
19547;SDS011;9919;58.014;11.826;2023-06-05T06:09:31;1.02;;;1.00;;
19547;SDS011;9919;58.014;11.826;2023-06-05T06:11:33;1.25;;;1.20;;
19547;SDS011;9919;58.014;11.826;2023-06-05T06:13:36;0.95;;;0.95;;
19547;SDS011;9919;58.014;11.826;2023-06-05T06:15:37;1.13;;;1.02;;
19547;SDS011;9919;58.014;11.826;2023-06-05T06:17:40;2.17;;;1.15;;
19547;SDS011;9919;58.014;11.826;2023-06-05T06:19:41;1.20;;;1.20;;
19547;SDS011;9919;58.014;11.826;2023-06-05T06:21:43;1.30;;;1.20;;
19547;SDS011;9919;58.014;11.826;2023-06-05T06:23:44;1.50;;;1.40;;
19547;SDS011;9919;58.014;11.826;2023-06-05T06:25:46;1.48;;;1.13;;
19547;SDS011;9919;58.014;11.826;2023-06-05T06:27:47;1.40;;;0.90;;
19547;SDS011;9919;58.014;11.826;2023-06-05T06:29:50;2.92;;;1.50;;
19547;SDS011;9919;58.014;11.826;2023-06-05T06:31:55;1.20;;;1.10;;
19547;SDS011;9919;58.014;11.826;2023-06-05T06:33:57;2.05;;;1.48;;
19547;SDS011;9919;58.014;11.826;2023-06-05T06:36:00;1.02;;;1.02;;
19547;SDS011;9919;58.014;11.826;2023-06-05T06:38:02;1.65;;;1.15;;
19547;SDS011;9919;58.014;11.826;2023-06-05T06:40:04;2.20;;;1.52;;
19547;SDS011;9919;58.014;11.826;2023-06-05T06:42:09;2.10;;;1.50;;
19547;SDS011;9919;58.014;11.826;2023-06-05T06:44:11;1.75;;;1.48;;
19547;SDS011;9919;58.014;11.826;2023-06-05T06:46:12;2.63;;;1.33;;
19547;SDS011;9919;58.014;11.826;2023-06-05T06:48:15;1.15;;;1.10;;
19547;SDS011;9919;58.014;11.826;2023-06-05T06:50:17;1.35;;;1.20;;
19547;SDS011;9919;58.014;11.826;2023-06-05T06:52:20;1.27;;;1.17;;
19547;SDS011;9919;58.014;11.826;2023-06-05T06:54:22;1.00;;;1.00;;
19547;SDS011;9919;58.014;11.826;2023-06-05T06:56:25;1.48;;;1.10;;
19547;SDS011;9919;58.014;11.826;2023-06-05T06:58:27;1.70;;;1.35;;
19547;SDS011;9919;58.014;11.826;2023-06-05T07:00:29;1.33;;;1.30;;
19547;SDS011;9919;58.014;11.826;2023-06-05T07:02:31;3.67;;;1.40;;
19547;SDS011;9919;58.014;11.826;2023-06-05T07:04:33;1.65;;;1.42;;
19547;SDS011;9919;58.014;11.826;2023-06-05T07:06:35;1.42;;;1.30;;
19547;SDS011;9919;58.014;11.826;2023-06-05T07:08:37;3.97;;;1.55;;
19547;SDS011;9919;58.014;11.826;2023-06-05T07:10:39;0.90;;;0.90;;
19547;SDS011;9919;58.014;11.826;2023-06-05T07:12:42;2.28;;;1.48;;
19547;SDS011;9919;58.014;11.826;2023-06-05T07:14:44;1.35;;;1.25;;
19547;SDS011;9919;58.014;11.826;2023-06-05T07:16:46;1.30;;;1.20;;
19547;SDS011;9919;58.014;11.826;2023-06-05T07:18:48;4.05;;;1.42;;
19547;SDS011;9919;58.014;11.826;2023-06-05T07:20:51;1.77;;;1.67;;
19547;SDS011;9919;58.014;11.826;2023-06-05T07:22:52;1.50;;;1.40;;
19547;SDS011;9919;58.014;11.826;2023-06-05T07:24:53;1.40;;;1.30;;
19547;SDS011;9919;58.014;11.826;2023-06-05T07:26:56;2.33;;;1.40;;
19547;SDS011;9919;58.014;11.826;2023-06-05T07:28:59;3.40;;;1.42;;
19547;SDS011;9919;58.014;11.826;2023-06-05T07:31:01;1.95;;;1.70;;
19547;SDS011;9919;58.014;11.826;2023-06-05T07:33:03;1.45;;;1.00;;
19547;SDS011;9919;58.014;11.826;2023-06-05T07:35:05;2.90;;;1.40;;
19547;SDS011;9919;58.014;11.826;2023-06-05T07:37:08;3.30;;;1.75;;
19547;SDS011;9919;58.014;11.826;2023-06-05T07:39:09;3.47;;;1.60;;
19547;SDS011;9919;58.014;11.826;2023-06-05T07:41:12;1.17;;;1.17;;
19547;SDS011;9919;58.014;11.826;2023-06-05T07:43:13;2.63;;;1.42;;
19547;SDS011;9919;58.014;11.826;2023-06-05T07:45:15;1.25;;;1.20;;
19547;SDS011;9919;58.014;11.826;2023-06-05T07:47:17;2.38;;;1.20;;
19547;SDS011;9919;58.014;11.826;2023-06-05T07:49:19;2.90;;;1.20;;
19547;SDS011;9919;58.014;11.826;2023-06-05T07:51:23;1.20;;;1.20;;
19547;SDS011;9919;58.014;11.826;2023-06-05T07:53:26;1.63;;;1.23;;
19547;SDS011;9919;58.014;11.826;2023-06-05T07:55:28;1.40;;;1.25;;
19547;SDS011;9919;58.014;11.826;2023-06-05T07:57:29;2.78;;;1.38;;
19547;SDS011;9919;58.014;11.826;2023-06-05T07:59:32;1.63;;;1.52;;
19547;SDS011;9919;58.014;11.826;2023-06-05T08:01:34;1.30;;;1.20;;
19547;SDS011;9919;58.014;11.826;2023-06-05T08:03:36;1.10;;;1.10;;
19547;SDS011;9919;58.014;11.826;2023-06-05T08:05:38;1.08;;;1.08;;
19547;SDS011;9919;58.014;11.826;2023-06-05T08:07:42;1.48;;;1.08;;
19547;SDS011;9919;58.014;11.826;2023-06-05T08:09:44;4.60;;;1.50;;
19547;SDS011;9919;58.014;11.826;2023-06-05T08:11:45;1.58;;;1.48;;
19547;SDS011;9919;58.014;11.826;2023-06-05T08:13:46;1.15;;;1.15;;
19547;SDS011;9919;58.014;11.826;2023-06-05T08:15:48;1.85;;;1.30;;
19547;SDS011;9919;58.014;11.826;2023-06-05T08:17:49;1.55;;;1.40;;
19547;SDS011;9919;58.014;11.826;2023-06-05T08:19:51;2.47;;;1.42;;
19547;SDS011;9919;58.014;11.826;2023-06-05T08:21:53;2.63;;;1.63;;
19547;SDS011;9919;58.014;11.826;2023-06-05T08:23:56;1.75;;;1.63;;
19547;SDS011;9919;58.014;11.826;2023-06-05T08:25:58;1.52;;;1.42;;
19547;SDS011;9919;58.014;11.826;2023-06-05T08:28:01;1.83;;;1.70;;
19547;SDS011;9919;58.014;11.826;2023-06-05T08:30:02;1.38;;;1.27;;
19547;SDS011;9919;58.014;11.826;2023-06-05T08:32:05;4.93;;;1.90;;
19547;SDS011;9919;58.014;11.826;2023-06-05T08:34:06;1.45;;;1.38;;
19547;SDS011;9919;58.014;11.826;2023-06-05T08:36:07;1.70;;;1.30;;
19547;SDS011;9919;58.014;11.826;2023-06-05T08:38:09;1.10;;;1.10;;
19547;SDS011;9919;58.014;11.826;2023-06-05T08:40:11;1.90;;;1.60;;
19547;SDS011;9919;58.014;11.826;2023-06-05T08:42:12;1.27;;;1.25;;
19547;SDS011;9919;58.014;11.826;2023-06-05T08:44:18;1.75;;;1.48;;
19547;SDS011;9919;58.014;11.826;2023-06-05T08:46:19;1.65;;;1.35;;
19547;SDS011;9919;58.014;11.826;2023-06-05T08:48:21;3.03;;;1.50;;
19547;SDS011;9919;58.014;11.826;2023-06-05T08:50:23;1.25;;;1.15;;
19547;SDS011;9919;58.014;11.826;2023-06-05T08:52:24;1.60;;;1.50;;
19547;SDS011;9919;58.014;11.826;2023-06-05T08:54:26;1.40;;;1.30;;
19547;SDS011;9919;58.014;11.826;2023-06-05T08:56:27;2.95;;;1.48;;
19547;SDS011;9919;58.014;11.826;2023-06-05T08:58:32;1.92;;;1.08;;
19547;SDS011;9919;58.014;11.826;2023-06-05T09:00:34;1.60;;;1.50;;
19547;SDS011;9919;58.014;11.826;2023-06-05T09:02:40;1.65;;;1.55;;
19547;SDS011;9919;58.014;11.826;2023-06-05T09:04:46;1.88;;;1.77;;
19547;SDS011;9919;58.014;11.826;2023-06-05T09:06:50;3.65;;;1.80;;
19547;SDS011;9919;58.014;11.826;2023-06-05T09:08:54;2.25;;;1.70;;
19547;SDS011;9919;58.014;11.826;2023-06-05T09:13:25;1.45;;;1.35;;
19547;SDS011;9919;58.014;11.826;2023-06-05T09:15:49;1.40;;;1.27;;
19547;SDS011;9919;58.014;11.826;2023-06-05T09:18:03;4.55;;;2.00;;
19547;SDS011;9919;58.014;11.826;2023-06-05T09:20:24;1.50;;;1.40;;
19547;SDS011;9919;58.014;11.826;2023-06-05T09:22:32;1.60;;;1.50;;
19547;SDS011;9919;58.014;11.826;2023-06-05T09:24:35;3.00;;;1.50;;
19547;SDS011;9919;58.014;11.826;2023-06-05T09:28:54;2.63;;;1.38;;
19547;SDS011;9919;58.014;11.826;2023-06-05T09:33:08;1.40;;;1.30;;
19547;SDS011;9919;58.014;11.826;2023-06-05T09:35:10;1.42;;;1.33;;
19547;SDS011;9919;58.014;11.826;2023-06-05T09:37:16;2.10;;;1.33;;
19547;SDS011;9919;58.014;11.826;2023-06-05T09:39:18;1.73;;;1.35;;
19547;SDS011;9919;58.014;11.826;2023-06-05T09:41:21;1.52;;;1.42;;
19547;SDS011;9919;58.014;11.826;2023-06-05T09:43:22;1.63;;;1.50;;
19547;SDS011;9919;58.014;11.826;2023-06-05T09:45:25;1.75;;;1.38;;
19547;SDS011;9919;58.014;11.826;2023-06-05T09:47:42;1.60;;;1.50;;
19547;SDS011;9919;58.014;11.826;2023-06-05T09:51:46;4.50;;;1.60;;
19547;SDS011;9919;58.014;11.826;2023-06-05T09:53:50;1.77;;;1.48;;
19547;SDS011;9919;58.014;11.826;2023-06-05T09:55:51;1.27;;;1.17;;
19547;SDS011;9919;58.014;11.826;2023-06-05T09:57:52;1.50;;;1.20;;
19547;SDS011;9919;58.014;11.826;2023-06-05T09:59:56;1.10;;;1.10;;
19547;SDS011;9919;58.014;11.826;2023-06-05T10:02:03;1.20;;;1.10;;
19547;SDS011;9919;58.014;11.826;2023-06-05T10:04:06;3.78;;;1.23;;
19547;SDS011;9919;58.014;11.826;2023-06-05T10:06:09;1.33;;;1.23;;
19547;SDS011;9919;58.014;11.826;2023-06-05T10:08:12;2.97;;;1.23;;
19547;SDS011;9919;58.014;11.826;2023-06-05T10:10:14;1.52;;;1.40;;
19547;SDS011;9919;58.014;11.826;2023-06-05T10:12:16;2.15;;;1.30;;
19547;SDS011;9919;58.014;11.826;2023-06-05T10:14:18;1.27;;;1.17;;
19547;SDS011;9919;58.014;11.826;2023-06-05T10:16:20;1.45;;;1.38;;
19547;SDS011;9919;58.014;11.826;2023-06-05T10:18:22;2.17;;;1.38;;
19547;SDS011;9919;58.014;11.826;2023-06-05T10:20:23;1.48;;;1.30;;
19547;SDS011;9919;58.014;11.826;2023-06-05T10:22:25;1.70;;;1.25;;
19547;SDS011;9919;58.014;11.826;2023-06-05T10:24:30;1.50;;;1.30;;
19547;SDS011;9919;58.014;11.826;2023-06-05T10:28:51;1.35;;;1.25;;
19547;SDS011;9919;58.014;11.826;2023-06-05T10:31:19;2.92;;;1.60;;
19547;SDS011;9919;58.014;11.826;2023-06-05T10:38:10;1.60;;;1.50;;
19547;SDS011;9919;58.014;11.826;2023-06-05T10:40:18;2.92;;;1.50;;
19547;SDS011;9919;58.014;11.826;2023-06-05T10:42:24;1.33;;;1.23;;
19547;SDS011;9919;58.014;11.826;2023-06-05T10:44:41;2.42;;;1.38;;
19547;SDS011;9919;58.014;11.826;2023-06-05T10:46:44;2.97;;;1.30;;
19547;SDS011;9919;58.014;11.826;2023-06-05T10:53:59;1.17;;;1.17;;
19547;SDS011;9919;58.014;11.826;2023-06-05T10:56:00;1.83;;;1.38;;
19547;SDS011;9919;58.014;11.826;2023-06-05T10:58:05;2.35;;;1.63;;
19547;SDS011;9919;58.014;11.826;2023-06-05T11:00:08;1.13;;;1.10;;
19547;SDS011;9919;58.014;11.826;2023-06-05T11:04:15;2.08;;;1.30;;
19547;SDS011;9919;58.014;11.826;2023-06-05T11:06:17;1.40;;;1.40;;
19547;SDS011;9919;58.014;11.826;2023-06-05T11:08:21;2.67;;;1.20;;
19547;SDS011;9919;58.014;11.826;2023-06-05T11:10:22;1.60;;;1.50;;
19547;SDS011;9919;58.014;11.826;2023-06-05T11:12:24;1.42;;;1.40;;
19547;SDS011;9919;58.014;11.826;2023-06-05T11:16:46;2.67;;;1.55;;
19547;SDS011;9919;58.014;11.826;2023-06-05T11:18:49;1.80;;;1.00;;
19547;SDS011;9919;58.014;11.826;2023-06-05T11:20:54;1.25;;;1.25;;
19547;SDS011;9919;58.014;11.826;2023-06-05T11:29:42;1.40;;;1.30;;
19547;SDS011;9919;58.014;11.826;2023-06-05T11:31:43;1.60;;;1.50;;
19547;SDS011;9919;58.014;11.826;2023-06-05T11:33:45;1.77;;;1.52;;
19547;SDS011;9919;58.014;11.826;2023-06-05T11:35:47;1.33;;;0.98;;
19547;SDS011;9919;58.014;11.826;2023-06-05T11:37:56;1.95;;;1.50;;
19547;SDS011;9919;58.014;11.826;2023-06-05T11:40:08;1.38;;;1.27;;
19547;SDS011;9919;58.014;11.826;2023-06-05T11:42:10;1.25;;;1.15;;
19547;SDS011;9919;58.014;11.826;2023-06-05T11:44:12;1.20;;;1.20;;
19547;SDS011;9919;58.014;11.826;2023-06-05T11:46:14;1.15;;;1.05;;
19547;SDS011;9919;58.014;11.826;2023-06-05T11:48:16;1.20;;;1.20;;
19547;SDS011;9919;58.014;11.826;2023-06-05T11:50:18;1.50;;;1.27;;
19547;SDS011;9919;58.014;11.826;2023-06-05T11:52:19;1.30;;;1.20;;
19547;SDS011;9919;58.014;11.826;2023-06-05T11:54:23;1.27;;;1.10;;
19547;SDS011;9919;58.014;11.826;2023-06-05T11:56:29;1.35;;;1.25;;
19547;SDS011;9919;58.014;11.826;2023-06-05T11:58:34;3.25;;;1.73;;
19547;SDS011;9919;58.014;11.826;2023-06-05T12:00:37;1.27;;;1.25;;
19547;SDS011;9919;58.014;11.826;2023-06-05T12:02:41;1.30;;;1.20;;
19547;SDS011;9919;58.014;11.826;2023-06-05T12:04:43;1.30;;;1.20;;
19547;SDS011;9919;58.014;11.826;2023-06-05T12:06:45;1.25;;;1.15;;
19547;SDS011;9919;58.014;11.826;2023-06-05T12:08:47;3.35;;;1.20;;
19547;SDS011;9919;58.014;11.826;2023-06-05T12:10:49;1.27;;;1.23;;
19547;SDS011;9919;58.014;11.826;2023-06-05T12:12:51;1.13;;;1.05;;
19547;SDS011;9919;58.014;11.826;2023-06-05T12:14:53;1.48;;;1.10;;
19547;SDS011;9919;58.014;11.826;2023-06-05T12:16:55;1.52;;;1.20;;
19547;SDS011;9919;58.014;11.826;2023-06-05T12:18:58;1.08;;;1.08;;
19547;SDS011;9919;58.014;11.826;2023-06-05T12:21:20;2.55;;;1.50;;
19547;SDS011;9919;58.014;11.826;2023-06-05T12:23:22;1.30;;;1.08;;
19547;SDS011;9919;58.014;11.826;2023-06-05T12:25:24;1.60;;;1.50;;
19547;SDS011;9919;58.014;11.826;2023-06-05T12:27:29;1.83;;;1.40;;
19547;SDS011;9919;58.014;11.826;2023-06-05T12:29:33;1.42;;;1.33;;
19547;SDS011;9919;58.014;11.826;2023-06-05T12:31:36;1.20;;;1.20;;
19547;SDS011;9919;58.014;11.826;2023-06-05T12:33:46;1.65;;;1.10;;
19547;SDS011;9919;58.014;11.826;2023-06-05T12:35:48;1.10;;;1.10;;
19547;SDS011;9919;58.014;11.826;2023-06-05T12:37:49;1.33;;;1.23;;
19547;SDS011;9919;58.014;11.826;2023-06-05T12:39:51;1.40;;;1.30;;
19547;SDS011;9919;58.014;11.826;2023-06-05T12:41:52;2.88;;;1.10;;
19547;SDS011;9919;58.014;11.826;2023-06-05T12:44:00;1.08;;;1.08;;
19547;SDS011;9919;58.014;11.826;2023-06-05T12:46:04;1.30;;;1.20;;
19547;SDS011;9919;58.014;11.826;2023-06-05T12:48:07;1.92;;;1.30;;
19547;SDS011;9919;58.014;11.826;2023-06-05T12:50:10;1.10;;;1.10;;
19547;SDS011;9919;58.014;11.826;2023-06-05T12:52:12;1.30;;;1.17;;
19547;SDS011;9919;58.014;11.826;2023-06-05T12:54:14;0.95;;;0.95;;